sensor_id;sensor_type;location;lat;lon;timestamp;pressure;altitude;pressure_sealevel;temperature;humidity
42727;BME280;28372;56.832;60.658;2023-11-21T00:00:01;98595.72;;;-6.62;60.31
42727;BME280;28372;56.832;60.658;2023-11-21T00:02:39;98584.78;;;-6.71;60.38
42727;BME280;28372;56.832;60.658;2023-11-21T00:05:09;98563.19;;;-6.73;61.40
42727;BME280;28372;56.832;60.658;2023-11-21T00:07:37;98600.34;;;-6.69;60.71
42727;BME280;28372;56.832;60.658;2023-11-21T00:10:06;98577.13;;;-6.56;61.17
42727;BME280;28372;56.832;60.658;2023-11-21T00:12:36;98588.31;;;-6.65;60.67
42727;BME280;28372;56.832;60.658;2023-11-21T00:15:04;98567.59;;;-6.62;60.49
42727;BME280;28372;56.832;60.658;2023-11-21T00:17:32;98572.50;;;-6.48;60.49
42727;BME280;28372;56.832;60.658;2023-11-21T00:20:00;98556.81;;;-6.60;60.77
42727;BME280;28372;56.832;60.658;2023-11-21T00:22:29;98538.78;;;-6.68;60.46
42727;BME280;28372;56.832;60.658;2023-11-21T00:24:57;98547.56;;;-6.80;60.60
42727;BME280;28372;56.832;60.658;2023-11-21T00:27:25;98553.38;;;-6.78;61.24
42727;BME280;28372;56.832;60.658;2023-11-21T00:29:53;98564.47;;;-6.59;60.71
42727;BME280;28372;56.832;60.658;2023-11-21T00:32:20;98556.47;;;-6.64;60.98
42727;BME280;28372;56.832;60.658;2023-11-21T00:34:48;98580.25;;;-6.76;60.75
42727;BME280;28372;56.832;60.658;2023-11-21T00:37:16;98549.22;;;-6.74;60.94
42727;BME280;28372;56.832;60.658;2023-11-21T00:39:44;98514.06;;;-6.50;61.12
42727;BME280;28372;56.832;60.658;2023-11-21T00:42:12;98561.84;;;-6.76;61.07
42727;BME280;28372;56.832;60.658;2023-11-21T00:44:39;98529.53;;;-6.71;60.42
42727;BME280;28372;56.832;60.658;2023-11-21T00:47:08;98550.03;;;-6.56;60.76
42727;BME280;28372;56.832;60.658;2023-11-21T00:49:36;98554.00;;;-6.71;60.50
42727;BME280;28372;56.832;60.658;2023-11-21T00:52:04;98530.66;;;-6.67;60.11
42727;BME280;28372;56.832;60.658;2023-11-21T00:54:32;98535.19;;;-6.79;60.96
42727;BME280;28372;56.832;60.658;2023-11-21T00:57:01;98511.00;;;-6.98;61.36
42727;BME280;28372;56.832;60.658;2023-11-21T00:59:30;98518.78;;;-6.69;60.95
42727;BME280;28372;56.832;60.658;2023-11-21T01:01:58;98506.34;;;-6.74;60.91
42727;BME280;28372;56.832;60.658;2023-11-21T01:04:27;98515.03;;;-6.74;61.45
42727;BME280;28372;56.832;60.658;2023-11-21T01:06:55;98513.03;;;-6.66;60.91
42727;BME280;28372;56.832;60.658;2023-11-21T01:09:23;98515.84;;;-6.73;60.75
42727;BME280;28372;56.832;60.658;2023-11-21T01:11:51;98501.72;;;-6.67;60.63
42727;BME280;28372;56.832;60.658;2023-11-21T01:14:19;98529.78;;;-6.90;61.14
42727;BME280;28372;56.832;60.658;2023-11-21T01:16:47;98511.47;;;-6.84;61.70
42727;BME280;28372;56.832;60.658;2023-11-21T01:19:16;98472.44;;;-6.71;60.33
42727;BME280;28372;56.832;60.658;2023-11-21T01:21:44;98512.16;;;-6.72;60.45
42727;BME280;28372;56.832;60.658;2023-11-21T01:24:11;98463.25;;;-6.73;60.52
42727;BME280;28372;56.832;60.658;2023-11-21T01:26:39;98484.44;;;-6.80;61.19
42727;BME280;28372;56.832;60.658;2023-11-21T01:29:07;98475.16;;;-6.65;61.31
42727;BME280;28372;56.832;60.658;2023-11-21T01:31:35;98454.28;;;-6.72;60.08
42727;BME280;28372;56.832;60.658;2023-11-21T01:34:02;98459.50;;;-6.77;61.00
42727;BME280;28372;56.832;60.658;2023-11-21T01:36:31;98477.03;;;-6.83;61.14
42727;BME280;28372;56.832;60.658;2023-11-21T01:39:02;98468.34;;;-6.83;61.51
42727;BME280;28372;56.832;60.658;2023-11-21T01:41:35;98430.09;;;-6.91;61.99
42727;BME280;28372;56.832;60.658;2023-11-21T01:44:02;98451.44;;;-6.88;61.48
42727;BME280;28372;56.832;60.658;2023-11-21T01:46:31;98459.44;;;-6.99;61.66
42727;BME280;28372;56.832;60.658;2023-11-21T01:48:58;98459.19;;;-7.15;62.18
42727;BME280;28372;56.832;60.658;2023-11-21T01:51:26;98466.34;;;-7.10;62.48
42727;BME280;28372;56.832;60.658;2023-11-21T01:53:55;98469.56;;;-7.08;62.49
42727;BME280;28372;56.832;60.658;2023-11-21T01:56:23;98443.66;;;-6.99;62.74
42727;BME280;28372;56.832;60.658;2023-11-21T01:58:51;98432.13;;;-6.76;61.53
42727;BME280;28372;56.832;60.658;2023-11-21T02:01:19;98438.28;;;-6.88;61.90
42727;BME280;28372;56.832;60.658;2023-11-21T02:03:46;98418.22;;;-6.94;62.07
42727;BME280;28372;56.832;60.658;2023-11-21T02:06:14;98432.72;;;-6.91;61.70
42727;BME280;28372;56.832;60.658;2023-11-21T02:08:47;98419.22;;;-6.78;61.56
42727;BME280;28372;56.832;60.658;2023-11-21T02:11:16;98413.72;;;-6.76;61.33
42727;BME280;28372;56.832;60.658;2023-11-21T02:13:47;98427.78;;;-6.88;61.75
42727;BME280;28372;56.832;60.658;2023-11-21T02:16:31;98417.34;;;-6.99;61.60
42727;BME280;28372;56.832;60.658;2023-11-21T02:19:02;98413.22;;;-6.95;61.37
42727;BME280;28372;56.832;60.658;2023-11-21T02:21:31;98401.47;;;-6.88;61.90
42727;BME280;28372;56.832;60.658;2023-11-21T02:23:59;98383.47;;;-6.96;61.79
42727;BME280;28372;56.832;60.658;2023-11-21T02:26:27;98402.81;;;-6.85;61.58
42727;BME280;28372;56.832;60.658;2023-11-21T02:28:55;98410.63;;;-6.90;61.40
42727;BME280;28372;56.832;60.658;2023-11-21T02:31:25;98383.88;;;-6.87;62.63
42727;BME280;28372;56.832;60.658;2023-11-21T02:33:56;98370.66;;;-6.92;63.62
42727;BME280;28372;56.832;60.658;2023-11-21T02:36:24;98385.88;;;-6.94;64.37
42727;BME280;28372;56.832;60.658;2023-11-21T02:38:53;98392.91;;;-7.17;65.61
42727;BME280;28372;56.832;60.658;2023-11-21T02:41:21;98360.09;;;-7.14;66.41
42727;BME280;28372;56.832;60.658;2023-11-21T02:43:49;98370.13;;;-7.11;67.08
42727;BME280;28372;56.832;60.658;2023-11-21T02:46:17;98352.78;;;-7.12;66.18
42727;BME280;28372;56.832;60.658;2023-11-21T02:48:44;98348.34;;;-6.90;67.30
42727;BME280;28372;56.832;60.658;2023-11-21T02:51:12;98349.63;;;-6.92;66.50
42727;BME280;28372;56.832;60.658;2023-11-21T02:53:40;98388.50;;;-7.11;65.98
42727;BME280;28372;56.832;60.658;2023-11-21T02:56:08;98347.31;;;-7.06;65.67
42727;BME280;28372;56.832;60.658;2023-11-21T02:58:36;98366.88;;;-7.18;65.20
42727;BME280;28372;56.832;60.658;2023-11-21T03:01:04;98352.91;;;-7.02;64.43
42727;BME280;28372;56.832;60.658;2023-11-21T03:03:32;98346.28;;;-7.04;65.01
42727;BME280;28372;56.832;60.658;2023-11-21T03:06:00;98355.47;;;-6.85;64.40
42727;BME280;28372;56.832;60.658;2023-11-21T03:08:28;98333.03;;;-6.93;64.40
42727;BME280;28372;56.832;60.658;2023-11-21T03:10:55;98351.22;;;-6.91;64.06
42727;BME280;28372;56.832;60.658;2023-11-21T03:13:23;98331.97;;;-6.92;64.39
42727;BME280;28372;56.832;60.658;2023-11-21T03:15:51;98331.94;;;-6.97;63.75
42727;BME280;28372;56.832;60.658;2023-11-21T03:18:19;98314.31;;;-6.96;64.27
42727;BME280;28372;56.832;60.658;2023-11-21T03:20:49;98309.81;;;-7.01;64.58
42727;BME280;28372;56.832;60.658;2023-11-21T03:23:17;98335.28;;;-7.01;64.73
42727;BME280;28372;56.832;60.658;2023-11-21T03:25:44;98307.88;;;-7.06;64.67
42727;BME280;28372;56.832;60.658;2023-11-21T03:28:12;98309.72;;;-7.06;65.59
42727;BME280;28372;56.832;60.658;2023-11-21T03:30:40;98322.94;;;-7.01;66.04
42727;BME280;28372;56.832;60.658;2023-11-21T03:33:08;98292.91;;;-7.05;66.40
42727;BME280;28372;56.832;60.658;2023-11-21T03:35:35;98277.41;;;-7.07;66.69
42727;BME280;28372;56.832;60.658;2023-11-21T03:38:03;98304.41;;;-7.11;66.72
42727;BME280;28372;56.832;60.658;2023-11-21T03:40:31;98296.94;;;-7.19;66.80
42727;BME280;28372;56.832;60.658;2023-11-21T03:43:01;98314.66;;;-7.32;66.57
42727;BME280;28372;56.832;60.658;2023-11-21T03:45:28;98315.59;;;-7.38;66.60
42727;BME280;28372;56.832;60.658;2023-11-21T03:47:56;98287.50;;;-7.37;66.56
42727;BME280;28372;56.832;60.658;2023-11-21T03:50:24;98285.66;;;-7.37;66.51
42727;BME280;28372;56.832;60.658;2023-11-21T03:52:52;98287.66;;;-7.44;66.72
42727;BME280;28372;56.832;60.658;2023-11-21T03:55:20;98270.31;;;-7.45;66.14
42727;BME280;28372;56.832;60.658;2023-11-21T03:57:48;98289.91;;;-7.53;66.49
42727;BME280;28372;56.832;60.658;2023-11-21T04:00:16;98267.72;;;-7.62;66.54
42727;BME280;28372;56.832;60.658;2023-11-21T04:02:45;98241.13;;;-7.49;66.53
42727;BME280;28372;56.832;60.658;2023-11-21T04:05:13;98284.88;;;-7.37;65.86
42727;BME280;28372;56.832;60.658;2023-11-21T04:07:41;98237.25;;;-7.41;65.82
42727;BME280;28372;56.832;60.658;2023-11-21T04:10:09;98263.69;;;-7.48;65.62
42727;BME280;28372;56.832;60.658;2023-11-21T04:12:40;98257.78;;;-7.38;65.66
42727;BME280;28372;56.832;60.658;2023-11-21T04:15:09;98242.84;;;-7.37;65.32
42727;BME280;28372;56.832;60.658;2023-11-21T04:17:38;98231.34;;;-7.31;64.76
42727;BME280;28372;56.832;60.658;2023-11-21T04:20:07;98239.47;;;-7.33;64.83
42727;BME280;28372;56.832;60.658;2023-11-21T04:22:39;98228.88;;;-7.38;64.91
42727;BME280;28372;56.832;60.658;2023-11-21T04:25:14;98251.09;;;-7.29;64.87
42727;BME280;28372;56.832;60.658;2023-11-21T04:27:45;98267.28;;;-7.37;64.81
42727;BME280;28372;56.832;60.658;2023-11-21T04:30:13;98252.94;;;-7.29;64.64
42727;BME280;28372;56.832;60.658;2023-11-21T04:32:41;98249.13;;;-7.38;63.83
42727;BME280;28372;56.832;60.658;2023-11-21T04:35:09;98245.22;;;-7.36;64.14
42727;BME280;28372;56.832;60.658;2023-11-21T04:37:38;98222.44;;;-7.30;64.57
42727;BME280;28372;56.832;60.658;2023-11-21T04:40:06;98215.56;;;-7.31;64.21
42727;BME280;28372;56.832;60.658;2023-11-21T04:42:35;98198.47;;;-7.12;63.98
42727;BME280;28372;56.832;60.658;2023-11-21T04:45:06;98194.13;;;-7.23;64.04
42727;BME280;28372;56.832;60.658;2023-11-21T04:47:37;98187.44;;;-7.31;64.13
42727;BME280;28372;56.832;60.658;2023-11-21T04:50:05;98193.69;;;-7.15;63.27
42727;BME280;28372;56.832;60.658;2023-11-21T04:52:33;98218.63;;;-7.17;63.80
42727;BME280;28372;56.832;60.658;2023-11-21T04:55:01;98181.91;;;-7.12;63.64
42727;BME280;28372;56.832;60.658;2023-11-21T04:57:31;98167.94;;;-7.13;63.48
42727;BME280;28372;56.832;60.658;2023-11-21T04:59:59;98177.84;;;-6.98;63.82
42727;BME280;28372;56.832;60.658;2023-11-21T05:02:28;98205.41;;;-7.00;63.49
42727;BME280;28372;56.832;60.658;2023-11-21T05:05:02;98175.53;;;-6.94;63.51
42727;BME280;28372;56.832;60.658;2023-11-21T05:07:37;98181.63;;;-6.89;63.45
42727;BME280;28372;56.832;60.658;2023-11-21T05:10:09;98163.41;;;-6.95;63.20
42727;BME280;28372;56.832;60.658;2023-11-21T05:12:41;98162.59;;;-6.96;63.17
42727;BME280;28372;56.832;60.658;2023-11-21T05:15:09;98134.16;;;-7.04;63.29
42727;BME280;28372;56.832;60.658;2023-11-21T05:17:40;98167.47;;;-7.10;63.57
42727;BME280;28372;56.832;60.658;2023-11-21T05:20:13;98176.94;;;-7.09;64.55
42727;BME280;28372;56.832;60.658;2023-11-21T05:22:41;98163.78;;;-7.09;64.23
42727;BME280;28372;56.832;60.658;2023-11-21T05:25:09;98133.41;;;-6.99;64.59
42727;BME280;28372;56.832;60.658;2023-11-21T05:27:39;98130.56;;;-6.93;64.42
42727;BME280;28372;56.832;60.658;2023-11-21T05:30:07;98119.16;;;-7.03;64.49
42727;BME280;28372;56.832;60.658;2023-11-21T05:32:40;98121.03;;;-6.99;64.88
42727;BME280;28372;56.832;60.658;2023-11-21T05:35:11;98104.47;;;-6.99;64.92
42727;BME280;28372;56.832;60.658;2023-11-21T05:37:47;98107.19;;;-6.89;65.22
42727;BME280;28372;56.832;60.658;2023-11-21T05:40:15;98110.06;;;-6.91;65.10
42727;BME280;28372;56.832;60.658;2023-11-21T05:42:44;98107.94;;;-6.94;65.70
42727;BME280;28372;56.832;60.658;2023-11-21T05:45:12;98084.47;;;-7.00;65.03
42727;BME280;28372;56.832;60.658;2023-11-21T05:47:41;98087.53;;;-7.09;65.16
42727;BME280;28372;56.832;60.658;2023-11-21T05:50:10;98071.06;;;-6.99;65.11
42727;BME280;28372;56.832;60.658;2023-11-21T05:52:46;98086.13;;;-6.94;65.30
42727;BME280;28372;56.832;60.658;2023-11-21T05:55:15;98091.31;;;-6.99;65.48
42727;BME280;28372;56.832;60.658;2023-11-21T05:57:44;98087.69;;;-6.93;65.04
42727;BME280;28372;56.832;60.658;2023-11-21T06:00:13;98100.00;;;-6.99;65.02
42727;BME280;28372;56.832;60.658;2023-11-21T06:02:49;98065.88;;;-6.94;65.00
42727;BME280;28372;56.832;60.658;2023-11-21T06:05:30;98066.50;;;-6.81;65.23
42727;BME280;28372;56.832;60.658;2023-11-21T06:08:03;98051.13;;;-6.95;65.51
42727;BME280;28372;56.832;60.658;2023-11-21T06:10:31;98075.69;;;-6.84;64.89
42727;BME280;28372;56.832;60.658;2023-11-21T06:12:59;98080.44;;;-6.81;64.34
42727;BME280;28372;56.832;60.658;2023-11-21T06:15:30;98090.69;;;-6.84;64.24
42727;BME280;28372;56.832;60.658;2023-11-21T06:17:58;98041.03;;;-6.71;64.30
42727;BME280;28372;56.832;60.658;2023-11-21T06:20:27;98072.03;;;-6.78;64.20
42727;BME280;28372;56.832;60.658;2023-11-21T06:22:55;98038.41;;;-6.76;64.39
42727;BME280;28372;56.832;60.658;2023-11-21T06:25:23;98063.09;;;-6.77;63.65
42727;BME280;28372;56.832;60.658;2023-11-21T06:27:51;98041.75;;;-6.85;64.22
42727;BME280;28372;56.832;60.658;2023-11-21T06:30:20;98036.81;;;-6.77;63.15
42727;BME280;28372;56.832;60.658;2023-11-21T06:32:49;98027.38;;;-6.73;63.60
42727;BME280;28372;56.832;60.658;2023-11-21T06:35:18;98044.50;;;-6.65;63.96
42727;BME280;28372;56.832;60.658;2023-11-21T06:37:46;98056.88;;;-6.65;63.54
42727;BME280;28372;56.832;60.658;2023-11-21T06:40:18;98023.16;;;-6.74;63.66
42727;BME280;28372;56.832;60.658;2023-11-21T06:42:48;98011.53;;;-6.83;63.45
42727;BME280;28372;56.832;60.658;2023-11-21T06:45:16;97991.22;;;-6.88;63.86
42727;BME280;28372;56.832;60.658;2023-11-21T06:47:44;97987.88;;;-6.78;64.15
42727;BME280;28372;56.832;60.658;2023-11-21T06:50:12;97999.69;;;-6.80;64.17
42727;BME280;28372;56.832;60.658;2023-11-21T06:52:41;97986.06;;;-6.77;64.28
42727;BME280;28372;56.832;60.658;2023-11-21T06:55:10;97978.88;;;-6.87;63.54
42727;BME280;28372;56.832;60.658;2023-11-21T06:57:38;98002.56;;;-6.82;63.82
42727;BME280;28372;56.832;60.658;2023-11-21T07:00:06;97988.13;;;-6.84;63.86
42727;BME280;28372;56.832;60.658;2023-11-21T07:02:37;97959.81;;;-6.67;63.71
42727;BME280;28372;56.832;60.658;2023-11-21T07:05:06;97997.25;;;-6.92;64.09
42727;BME280;28372;56.832;60.658;2023-11-21T07:07:34;97979.50;;;-6.69;63.44
42727;BME280;28372;56.832;60.658;2023-11-21T07:10:03;97950.53;;;-6.75;63.88
42727;BME280;28372;56.832;60.658;2023-11-21T07:12:33;97940.78;;;-6.79;63.77
42727;BME280;28372;56.832;60.658;2023-11-21T07:15:02;97944.66;;;-6.92;63.15
42727;BME280;28372;56.832;60.658;2023-11-21T07:17:35;97909.03;;;-6.62;63.22
42727;BME280;28372;56.832;60.658;2023-11-21T07:20:07;97920.56;;;-6.74;63.05
42727;BME280;28372;56.832;60.658;2023-11-21T07:22:35;97905.84;;;-6.69;63.69
42727;BME280;28372;56.832;60.658;2023-11-21T07:25:03;97920.78;;;-6.80;63.79
42727;BME280;28372;56.832;60.658;2023-11-21T07:27:31;97886.16;;;-6.67;63.40
42727;BME280;28372;56.832;60.658;2023-11-21T07:30:01;97899.53;;;-6.74;63.31
42727;BME280;28372;56.832;60.658;2023-11-21T07:32:32;97874.34;;;-6.59;62.93
42727;BME280;28372;56.832;60.658;2023-11-21T07:34:59;97862.22;;;-6.65;63.00
42727;BME280;28372;56.832;60.658;2023-11-21T07:37:30;97848.81;;;-6.69;62.33
42727;BME280;28372;56.832;60.658;2023-11-21T07:39:58;97860.84;;;-6.78;62.35
42727;BME280;28372;56.832;60.658;2023-11-21T07:42:26;97824.59;;;-6.66;63.70
42727;BME280;28372;56.832;60.658;2023-11-21T07:44:54;97868.47;;;-6.77;63.36
42727;BME280;28372;56.832;60.658;2023-11-21T07:47:22;97831.94;;;-6.68;63.17
42727;BME280;28372;56.832;60.658;2023-11-21T07:49:50;97823.03;;;-6.62;63.20
42727;BME280;28372;56.832;60.658;2023-11-21T07:52:17;97847.81;;;-6.47;62.94
42727;BME280;28372;56.832;60.658;2023-11-21T07:54:46;97802.56;;;-6.44;62.98
42727;BME280;28372;56.832;60.658;2023-11-21T07:57:13;97798.63;;;-6.37;62.77
42727;BME280;28372;56.832;60.658;2023-11-21T07:59:41;97795.19;;;-6.42;62.51
42727;BME280;28372;56.832;60.658;2023-11-21T08:02:08;97804.41;;;-6.45;62.37
42727;BME280;28372;56.832;60.658;2023-11-21T08:04:36;97759.66;;;-6.45;62.68
42727;BME280;28372;56.832;60.658;2023-11-21T08:07:04;97807.28;;;-6.41;63.05
42727;BME280;28372;56.832;60.658;2023-11-21T08:09:31;97784.94;;;-6.33;64.30
42727;BME280;28372;56.832;60.658;2023-11-21T08:12:00;97769.16;;;-6.28;65.10
42727;BME280;28372;56.832;60.658;2023-11-21T08:14:30;97783.13;;;-6.17;65.05
42727;BME280;28372;56.832;60.658;2023-11-21T08:16:57;97776.78;;;-6.22;64.51
42727;BME280;28372;56.832;60.658;2023-11-21T08:19:25;97764.44;;;-6.21;64.34
42727;BME280;28372;56.832;60.658;2023-11-21T08:21:53;97792.06;;;-6.13;63.99
42727;BME280;28372;56.832;60.658;2023-11-21T08:24:21;97761.00;;;-6.06;63.62
42727;BME280;28372;56.832;60.658;2023-11-21T08:26:49;97762.56;;;-6.10;63.63
42727;BME280;28372;56.832;60.658;2023-11-21T08:29:18;97753.13;;;-6.11;63.35
42727;BME280;28372;56.832;60.658;2023-11-21T08:31:46;97755.47;;;-6.15;63.00
42727;BME280;28372;56.832;60.658;2023-11-21T08:34:14;97729.13;;;-6.20;64.11
42727;BME280;28372;56.832;60.658;2023-11-21T08:36:43;97752.84;;;-6.25;66.54
42727;BME280;28372;56.832;60.658;2023-11-21T08:39:11;97728.38;;;-6.21;69.01
42727;BME280;28372;56.832;60.658;2023-11-21T08:41:40;97698.34;;;-6.14;70.46
42727;BME280;28372;56.832;60.658;2023-11-21T08:44:08;97715.19;;;-6.21;71.17
42727;BME280;28372;56.832;60.658;2023-11-21T08:46:36;97768.38;;;-6.24;72.54
42727;BME280;28372;56.832;60.658;2023-11-21T08:49:05;97691.25;;;-6.19;73.55
42727;BME280;28372;56.832;60.658;2023-11-21T08:51:33;97688.88;;;-6.26;74.37
42727;BME280;28372;56.832;60.658;2023-11-21T08:54:01;97707.31;;;-6.31;74.83
42727;BME280;28372;56.832;60.658;2023-11-21T08:56:32;97681.78;;;-6.25;77.02
42727;BME280;28372;56.832;60.658;2023-11-21T08:58:59;97708.88;;;-6.30;78.75
42727;BME280;28372;56.832;60.658;2023-11-21T09:01:31;97683.59;;;-6.26;80.29
42727;BME280;28372;56.832;60.658;2023-11-21T09:04:00;97711.78;;;-6.11;82.21
42727;BME280;28372;56.832;60.658;2023-11-21T09:06:28;97676.50;;;-6.10;84.90
42727;BME280;28372;56.832;60.658;2023-11-21T09:08:55;97678.00;;;-5.88;87.33
42727;BME280;28372;56.832;60.658;2023-11-21T09:11:23;97658.53;;;-5.92;88.86
42727;BME280;28372;56.832;60.658;2023-11-21T09:13:52;97654.03;;;-5.81;90.36
42727;BME280;28372;56.832;60.658;2023-11-21T09:16:20;97665.34;;;-5.76;90.70
42727;BME280;28372;56.832;60.658;2023-11-21T09:18:48;97716.72;;;-5.73;90.71
42727;BME280;28372;56.832;60.658;2023-11-21T09:21:15;97718.81;;;-5.75;91.28
42727;BME280;28372;56.832;60.658;2023-11-21T09:23:47;97651.06;;;-5.64;91.33
42727;BME280;28372;56.832;60.658;2023-11-21T09:26:15;97652.13;;;-5.65;91.30
42727;BME280;28372;56.832;60.658;2023-11-21T09:28:44;97673.47;;;-5.67;91.37
42727;BME280;28372;56.832;60.658;2023-11-21T09:31:14;97646.34;;;-5.68;90.99
42727;BME280;28372;56.832;60.658;2023-11-21T09:33:43;97670.03;;;-5.57;91.15
42727;BME280;28372;56.832;60.658;2023-11-21T09:36:12;97639.22;;;-5.57;90.88
42727;BME280;28372;56.832;60.658;2023-11-21T09:38:42;97636.25;;;-5.50;89.80
42727;BME280;28372;56.832;60.658;2023-11-21T09:41:19;97632.06;;;-5.51;89.92
42727;BME280;28372;56.832;60.658;2023-11-21T09:43:52;97629.38;;;-5.46;89.64
42727;BME280;28372;56.832;60.658;2023-11-21T09:46:23;97650.19;;;-5.44;88.96
42727;BME280;28372;56.832;60.658;2023-11-21T09:48:53;97620.44;;;-5.50;89.00
42727;BME280;28372;56.832;60.658;2023-11-21T09:51:27;97615.19;;;-5.50;88.52
42727;BME280;28372;56.832;60.658;2023-11-21T09:53:57;97599.91;;;-5.48;87.53
42727;BME280;28372;56.832;60.658;2023-11-21T09:56:26;97604.97;;;-5.62;87.48
42727;BME280;28372;56.832;60.658;2023-11-21T09:58:54;97563.03;;;-5.58;87.77
42727;BME280;28372;56.832;60.658;2023-11-21T10:01:25;97559.13;;;-5.61;87.25
42727;BME280;28372;56.832;60.658;2023-11-21T10:03:55;97566.81;;;-5.75;87.04
42727;BME280;28372;56.832;60.658;2023-11-21T10:06:25;97563.13;;;-5.74;87.99
42727;BME280;28372;56.832;60.658;2023-11-21T10:08:54;97572.31;;;-5.71;88.04
42727;BME280;28372;56.832;60.658;2023-11-21T10:11:24;97579.19;;;-5.70;88.06
42727;BME280;28372;56.832;60.658;2023-11-21T10:13:54;97549.63;;;-5.62;87.76
42727;BME280;28372;56.832;60.658;2023-11-21T10:16:26;97567.81;;;-5.60;86.90
42727;BME280;28372;56.832;60.658;2023-11-21T10:18:55;97529.34;;;-5.61;86.58
42727;BME280;28372;56.832;60.658;2023-11-21T10:21:40;97540.91;;;-5.57;86.89
42727;BME280;28372;56.832;60.658;2023-11-21T10:24:07;97494.59;;;-5.63;86.46
42727;BME280;28372;56.832;60.658;2023-11-21T10:26:36;97519.09;;;-5.68;85.79
42727;BME280;28372;56.832;60.658;2023-11-21T10:29:19;97506.16;;;-5.59;84.93
42727;BME280;28372;56.832;60.658;2023-11-21T10:31:52;97507.97;;;-5.60;84.94
42727;BME280;28372;56.832;60.658;2023-11-21T10:34:22;97486.72;;;-5.74;84.88
42727;BME280;28372;56.832;60.658;2023-11-21T10:36:50;97504.09;;;-5.68;84.79
42727;BME280;28372;56.832;60.658;2023-11-21T10:39:21;97508.78;;;-5.59;84.83
42727;BME280;28372;56.832;60.658;2023-11-21T10:41:51;97503.25;;;-5.63;83.99
42727;BME280;28372;56.832;60.658;2023-11-21T10:44:18;97484.78;;;-5.58;84.60
42727;BME280;28372;56.832;60.658;2023-11-21T10:46:54;97492.72;;;-5.63;85.06
42727;BME280;28372;56.832;60.658;2023-11-21T10:49:26;97487.25;;;-5.72;85.57
42727;BME280;28372;56.832;60.658;2023-11-21T10:51:55;97491.66;;;-5.57;85.69
42727;BME280;28372;56.832;60.658;2023-11-21T10:54:24;97493.44;;;-5.52;85.42
42727;BME280;28372;56.832;60.658;2023-11-21T10:57:00;97466.31;;;-5.53;85.00
42727;BME280;28372;56.832;60.658;2023-11-21T10:59:30;97463.41;;;-5.51;84.32
42727;BME280;28372;56.832;60.658;2023-11-21T11:02:01;97460.53;;;-5.55;84.75
42727;BME280;28372;56.832;60.658;2023-11-21T11:04:31;97463.94;;;-5.54;85.25
42727;BME280;28372;56.832;60.658;2023-11-21T11:07:03;97469.19;;;-5.49;84.49
42727;BME280;28372;56.832;60.658;2023-11-21T11:09:33;97485.00;;;-5.49;84.86
42727;BME280;28372;56.832;60.658;2023-11-21T11:12:04;97471.25;;;-5.46;83.76
42727;BME280;28372;56.832;60.658;2023-11-21T11:14:32;97463.91;;;-5.49;83.92
42727;BME280;28372;56.832;60.658;2023-11-21T11:17:01;97447.06;;;-5.48;84.47
42727;BME280;28372;56.832;60.658;2023-11-21T11:19:30;97428.31;;;-5.46;84.38
42727;BME280;28372;56.832;60.658;2023-11-21T11:30:39;97471.44;;;-5.32;84.25
42727;BME280;28372;56.832;60.658;2023-11-21T11:38:33;97466.88;;;-5.21;79.23
42727;BME280;28372;56.832;60.658;2023-11-21T11:41:03;97464.44;;;-5.18;77.75
42727;BME280;28372;56.832;60.658;2023-11-21T11:43:32;97421.59;;;-5.28;76.01
42727;BME280;28372;56.832;60.658;2023-11-21T11:46:03;97463.41;;;-5.17;76.17
42727;BME280;28372;56.832;60.658;2023-11-21T11:48:37;97449.16;;;-5.16;74.64
42727;BME280;28372;56.832;60.658;2023-11-21T11:51:15;97463.09;;;-5.10;74.62
42727;BME280;28372;56.832;60.658;2023-11-21T11:53:48;97473.44;;;-5.19;75.17
42727;BME280;28372;56.832;60.658;2023-11-21T11:56:29;97453.97;;;-5.23;77.02
42727;BME280;28372;56.832;60.658;2023-11-21T11:58:59;97452.06;;;-5.17;76.70
42727;BME280;28372;56.832;60.658;2023-11-21T12:01:32;97437.84;;;-5.16;76.24
42727;BME280;28372;56.832;60.658;2023-11-21T12:07:02;97454.72;;;-5.17;76.17
42727;BME280;28372;56.832;60.658;2023-11-21T12:09:33;97469.47;;;-5.16;76.33
42727;BME280;28372;56.832;60.658;2023-11-21T12:12:02;97458.94;;;-5.16;75.71
42727;BME280;28372;56.832;60.658;2023-11-21T12:14:30;97447.38;;;-5.20;76.73
42727;BME280;28372;56.832;60.658;2023-11-21T12:16:58;97434.69;;;-5.18;76.26
42727;BME280;28372;56.832;60.658;2023-11-21T12:19:27;97436.22;;;-5.12;74.73
42727;BME280;28372;56.832;60.658;2023-11-21T12:21:55;97430.09;;;-5.07;74.50
42727;BME280;28372;56.832;60.658;2023-11-21T12:24:23;97406.19;;;-5.16;73.57
42727;BME280;28372;56.832;60.658;2023-11-21T12:26:51;97409.06;;;-5.12;74.81
42727;BME280;28372;56.832;60.658;2023-11-21T12:29:20;97416.47;;;-5.14;76.38
42727;BME280;28372;56.832;60.658;2023-11-21T12:31:49;97417.25;;;-5.14;76.26
42727;BME280;28372;56.832;60.658;2023-11-21T12:34:17;97396.72;;;-5.17;76.56
42727;BME280;28372;56.832;60.658;2023-11-21T12:36:45;97384.81;;;-5.14;76.47
42727;BME280;28372;56.832;60.658;2023-11-21T12:39:13;97415.63;;;-5.10;75.86
42727;BME280;28372;56.832;60.658;2023-11-21T12:41:42;97407.25;;;-5.17;73.97
42727;BME280;28372;56.832;60.658;2023-11-21T12:44:12;97389.53;;;-5.11;74.64
42727;BME280;28372;56.832;60.658;2023-11-21T12:46:43;97379.72;;;-5.06;74.74
42727;BME280;28372;56.832;60.658;2023-11-21T12:49:12;97388.13;;;-5.04;74.13
42727;BME280;28372;56.832;60.658;2023-11-21T12:51:48;97402.72;;;-5.11;75.37
42727;BME280;28372;56.832;60.658;2023-11-21T12:54:15;97372.94;;;-5.12;75.74
42727;BME280;28372;56.832;60.658;2023-11-21T12:56:45;97361.31;;;-5.11;76.18
42727;BME280;28372;56.832;60.658;2023-11-21T12:59:14;97373.72;;;-5.11;75.50
42727;BME280;28372;56.832;60.658;2023-11-21T13:01:43;97349.69;;;-5.10;76.29
42727;BME280;28372;56.832;60.658;2023-11-21T13:04:13;97332.31;;;-5.11;76.65
42727;BME280;28372;56.832;60.658;2023-11-21T13:06:41;97380.56;;;-5.10;76.04
42727;BME280;28372;56.832;60.658;2023-11-21T13:09:09;97322.16;;;-5.23;76.50
42727;BME280;28372;56.832;60.658;2023-11-21T13:11:38;97341.34;;;-5.17;75.29
42727;BME280;28372;56.832;60.658;2023-11-21T13:14:08;97329.66;;;-5.11;76.07
42727;BME280;28372;56.832;60.658;2023-11-21T13:16:39;97357.38;;;-5.13;76.96